Time;durP1;ratioP1;P1;durP2;ratioP2;P2;SDS_P1;SDS_P2;PMS_P1;PMS_P2;Temp;Humidity;BMP_temperature;BMP_pressure;BME280_temperature;BME280_humidity;BME280_pressure;Samples;Min_cycle;Max_cycle;Signal;HPM_P1;HPM_P2
2022/10/19 00:02:07;;;;;;;;;;;;;;;13.44;52.99;101710.78;4942406;28;98739;-64
2022/10/19 00:04:33;;;;;;;;;;;;;;;13.43;52.78;101711.88;4953257;28;98705;-68
2022/10/19 00:06:59;;;;;;;;;;;;;;;13.40;52.55;101709.66;4938724;28;98325;-64
2022/10/19 00:09:25;;;;;;;;;;;;;;;13.38;52.57;101706.41;4947178;28;97962;-68
2022/10/19 00:11:51;;;;;;;;;;;;;;;13.34;52.78;101708.81;4939741;28;105135;-65
2022/10/19 00:14:20;;;;;;;;;;;;;;;13.33;52.60;101720.72;4939081;28;98332;-68
2022/10/19 00:16:47;;;;;;;;;;;;;;;13.32;52.69;101715.53;4944318;28;98823;-65
2022/10/19 00:19:15;;;;;;;;;;;;;;;13.30;52.99;101710.41;4947835;28;98044;-64
2022/10/19 00:21:41;;;;;;;;;;;;;;;13.29;53.02;101714.19;4936094;28;99799;-68
2022/10/19 00:24:07;;;;;;;;;;;;;;;13.29;52.66;101729.63;4924760;28;98152;-65
2022/10/19 00:26:33;;;;;;;;;;;;;;;13.27;52.76;101730.66;4941991;28;97811;-65
2022/10/19 00:29:00;;;;;;;;;;;;;;;13.27;52.84;101732.56;4938410;28;97876;-65
2022/10/19 00:31:26;;;;;;;;;;;;;;;13.27;52.75;101737.97;4932305;28;98300;-68
2022/10/19 00:33:52;;;;;;;;;;;;;;;13.25;52.83;101732.00;4943037;28;98084;-68
2022/10/19 00:36:23;;;;;;;;;;;;;;;13.24;52.65;101722.22;4955268;28;98016;-64
2022/10/19 00:38:49;;;;;;;;;;;;;;;13.21;52.97;101730.84;4946135;28;97964;-64
2022/10/19 00:41:16;;;;;;;;;;;;;;;13.17;53.00;101724.31;4938486;28;106360;-65
2022/10/19 00:43:55;;;;;;;;;;;;;;;13.14;53.02;101732.94;4949829;28;98131;-65
2022/10/19 00:46:21;;;;;;;;;;;;;;;13.17;53.08;101730.53;4954415;28;98164;-65
2022/10/19 00:48:48;;;;;;;;;;;;;;;13.20;52.77;101719.22;4949561;28;104937;-65
2022/10/19 00:51:14;;;;;;;;;;;;;;;13.24;52.65;101722.22;4960084;28;98273;-65
2022/10/19 00:53:40;;;;;;;;;;;;;;;13.26;52.78;101717.41;4936833;28;119830;-65
2022/10/19 00:56:08;;;;;;;;;;;;;;;13.27;52.89;101711.72;4951940;28;104331;-67
2022/10/19 00:58:35;;;;;;;;;;;;;;;13.28;52.87;101717.94;4926604;28;98328;-69
2022/10/19 01:01:01;;;;;;;;;;;;;;;13.27;52.71;101719.03;4952911;28;97999;-64
2022/10/19 01:03:27;;;;;;;;;;;;;;;13.25;52.73;101719.28;4953897;28;108626;-69
2022/10/19 01:05:53;;;;;;;;;;;;;;;13.25;52.96;101724.69;4941915;28;127592;-65
2022/10/19 01:08:19;;;;;;;;;;;;;;;13.22;52.84;101725.19;4941955;28;97873;-65
2022/10/19 01:10:51;;;;;;;;;;;;;;;13.21;53.12;101726.25;4934098;28;98599;-65
2022/10/19 01:13:42;;;;;;;;;;;;;;;13.19;53.09;101724.84;4938089;28;97932;-65
2022/10/19 01:16:16;;;;;;;;;;;;;;;13.17;53.15;101725.13;4950327;28;97972;-65
2022/10/19 01:18:52;;;;;;;;;;;;;;;13.15;52.74;101715.63;4934191;28;99463;-65
2022/10/19 01:21:22;;;;;;;;;;;;;;;13.13;53.22;101706.94;4952536;28;97970;-65
2022/10/19 01:24:00;;;;;;;;;;;;;;;13.09;53.12;101716.66;4936850;28;97903;-65
2022/10/19 01:26:51;;;;;;;;;;;;;;;13.07;52.85;101719.59;4957700;28;98101;-65
2022/10/19 01:29:36;;;;;;;;;;;;;;;13.05;53.20;101716.34;4948152;28;98740;-69
2022/10/19 01:32:17;;;;;;;;;;;;;;;13.03;53.25;101710.34;4954026;28;98149;-65
2022/10/19 01:34:52;;;;;;;;;;;;;;;13.01;53.11;101710.59;4930531;28;99097;-69
2022/10/19 01:37:21;;;;;;;;;;;;;;;12.98;53.02;101708.41;4954429;28;98056;-65
2022/10/19 01:40:22;;;;;;;;;;;;;;;12.97;53.09;101720.31;4944980;28;98290;-65
2022/10/19 01:43:08;;;;;;;;;;;;;;;12.94;52.95;101720.00;4930506;28;98378;-69
2022/10/19 01:45:46;;;;;;;;;;;;;;;12.91;52.89;101720.47;4946693;28;97994;-65
2022/10/19 01:48:30;;;;;;;;;;;;;;;12.89;53.28;101719.91;4953914;28;98149;-65
2022/10/19 01:51:20;;;;;;;;;;;;;;;12.87;52.91;101719.34;4946027;28;98273;-69
2022/10/19 01:53:50;;;;;;;;;;;;;;;12.85;53.06;101718.78;4957762;28;100114;-68
2022/10/19 01:56:17;;;;;;;;;;;;;;;12.84;52.93;101723.38;4933402;28;99796;-69
2022/10/19 01:58:43;;;;;;;;;;;;;;;12.83;52.87;101712.81;4941028;28;98258;-69
2022/10/19 02:01:10;;;;;;;;;;;;;;;12.80;52.96;101716.84;4938357;28;97894;-68
2022/10/19 02:03:36;;;;;;;;;;;;;;;12.77;52.91;101707.34;4937105;28;97963;-64
2022/10/19 02:06:03;;;;;;;;;;;;;;;12.75;53.01;101704.06;4935706;28;98297;-64
2022/10/19 02:08:43;;;;;;;;;;;;;;;12.75;52.92;101695.94;4943344;28;98103;-65
2022/10/19 02:11:09;;;;;;;;;;;;;;;12.73;52.92;101691.84;4951066;28;98326;-69
2022/10/19 02:13:36;;;;;;;;;;;;;;;12.72;53.03;101695.63;4933289;28;100660;-68
2022/10/19 02:16:04;;;;;;;;;;;;;;;12.70;52.90;101698.59;4943988;28;98151;-66
2022/10/19 02:18:39;;;;;;;;;;;;;;;12.69;52.85;101694.25;4933929;28;98013;-65
2022/10/19 02:21:05;;;;;;;;;;;;;;;12.65;52.94;101698.50;4934323;28;98083;-64
2022/10/19 02:23:31;;;;;;;;;;;;;;;12.62;52.87;101704.44;4934262;28;97921;-68
2022/10/19 02:25:57;;;;;;;;;;;;;;;12.61;52.94;101705.50;4929320;28;97977;-65
2022/10/19 02:28:23;;;;;;;;;;;;;;;12.59;53.14;101707.66;4950389;28;127405;-68
2022/10/19 02:30:49;;;;;;;;;;;;;;;12.56;52.93;101710.84;4931769;28;98131;-68
2022/10/19 02:33:15;;;;;;;;;;;;;;;12.54;53.06;101713.00;4935649;28;97957;-68
2022/10/19 02:35:42;;;;;;;;;;;;;;;12.50;53.09;101706.47;4929032;28;100351;-65
2022/10/19 02:38:09;;;;;;;;;;;;;;;12.49;52.86;101705.63;4941254;28;98296;-64
2022/10/19 02:40:37;;;;;;;;;;;;;;;12.47;53.03;101715.88;4939641;28;98038;-68
2022/10/19 02:43:04;;;;;;;;;;;;;;;12.45;52.99;101717.19;4940208;28;98160;-68
2022/10/19 02:45:32;;;;;;;;;;;;;;;12.42;52.82;101709.59;4941309;28;97850;-64
2022/10/19 02:48:06;;;;;;;;;;;;;;;12.40;53.07;101698.19;4947179;28;98257;-68
2022/10/19 02:50:32;;;;;;;;;;;;;;;12.38;52.99;101692.19;4926597;28;98355;-68
2022/10/19 02:52:58;;;;;;;;;;;;;;;12.37;52.85;101702.19;4932757;28;99706;-65
2022/10/19 02:55:25;;;;;;;;;;;;;;;12.36;52.98;101705.16;4940574;28;100560;-65
2022/10/19 02:57:51;;;;;;;;;;;;;;;12.33;53.05;101698.38;4940496;28;98164;-64
2022/10/19 03:00:17;;;;;;;;;;;;;;;12.32;53.08;101693.22;4935532;28;98129;-68
2022/10/19 03:02:43;;;;;;;;;;;;;;;12.31;53.00;101694.28;4953887;28;98540;-64
2022/10/19 03:05:09;;;;;;;;;;;;;;;12.31;52.88;101694.28;4939176;28;98546;-68
2022/10/19 03:07:35;;;;;;;;;;;;;;;12.27;53.04;101694.78;4945661;28;97975;-65
2022/10/19 03:10:01;;;;;;;;;;;;;;;12.26;52.97;101703.97;4935314;28;116823;-68
2022/10/19 03:12:28;;;;;;;;;;;;;;;12.24;53.17;101700.69;4954591;28;120623;-69
2022/10/19 03:14:54;;;;;;;;;;;;;;;12.23;52.94;101693.66;4934820;28;98148;-68
2022/10/19 03:17:20;;;;;;;;;;;;;;;12.23;52.80;101695.53;4940415;28;97893;-68
2022/10/19 03:19:46;;;;;;;;;;;;;;;12.22;52.88;101694.72;4941215;28;98063;-64
2022/10/19 03:22:13;;;;;;;;;;;;;;;12.22;52.90;101704.69;4943841;28;99660;-68
2022/10/19 03:24:39;;;;;;;;;;;;;;;12.19;52.93;101706.03;4940948;28;98124;-68
2022/10/19 03:27:05;;;;;;;;;;;;;;;12.17;52.97;101696.50;4953319;28;113481;-68
2022/10/19 03:29:31;;;;;;;;;;;;;;;12.15;53.09;101695.97;4936194;28;119675;-64
2022/10/19 03:31:57;;;;;;;;;;;;;;;12.14;52.90;101691.59;4938906;28;98279;-68
2022/10/19 03:34:23;;;;;;;;;;;;;;;12.11;52.87;101692.13;4934887;28;99630;-68
2022/10/19 03:36:49;;;;;;;;;;;;;;;12.09;53.02;101689.63;4951654;28;98365;-68
2022/10/19 03:39:16;;;;;;;;;;;;;;;12.09;52.93;101694.22;4939314;28;97892;-64
2022/10/19 03:41:42;;;;;;;;;;;;;;;12.07;52.77;101690.97;4934822;28;97957;-64
2022/10/19 03:44:08;;;;;;;;;;;;;;;12.04;52.81;101692.28;4936845;28;99963;-68
2022/10/19 03:46:34;;;;;;;;;;;;;;;12.01;53.00;101693.56;4940703;28;97831;-68
2022/10/19 03:49:00;;;;;;;;;;;;;;;11.98;52.94;101696.78;4935003;28;98046;-65
2022/10/19 03:51:27;;;;;;;;;;;;;;;11.96;53.07;101700.81;4933834;28;108591;-64
2022/10/19 03:53:54;;;;;;;;;;;;;;;11.93;52.97;101701.28;4941384;28;97996;-64
2022/10/19 03:56:21;;;;;;;;;;;;;;;11.90;52.75;101715.28;4935018;28;107341;-68
2022/10/19 03:58:48;;;;;;;;;;;;;;;11.89;52.99;101711.78;4952489;28;98106;-64
2022/10/19 04:01:22;;;;;;;;;;;;;;;11.88;53.20;101717.44;4938868;28;97939;-68
2022/10/19 04:03:55;;;;;;;;;;;;;;;11.87;53.04;101727.41;4945213;28;98478;-65
2022/10/19 04:06:27;;;;;;;;;;;;;;;11.86;53.03;101725.75;4926108;28;99554;-64
2022/10/19 04:08:53;;;;;;;;;;;;;;;11.84;53.04;101718.97;4956368;28;97980;-64
2022/10/19 04:11:24;;;;;;;;;;;;;;;11.84;52.95;101722.50;4933257;28;98293;-68
2022/10/19 04:13:50;;;;;;;;;;;;;;;11.84;52.84;101721.69;4942792;28;97896;-64
2022/10/19 04:16:16;;;;;;;;;;;;;;;11.84;52.93;101727.09;4956044;28;122909;-65
2022/10/19 04:18:42;;;;;;;;;;;;;;;11.83;52.92;101725.41;4948719;28;97890;-68
2022/10/19 04:21:25;;;;;;;;;;;;;;;11.82;52.92;101726.47;4942409;28;101569;-68
2022/10/19 04:23:53;;;;;;;;;;;;;;;11.78;52.88;101726.13;4935480;28;98061;-64
2022/10/19 04:26:19;;;;;;;;;;;;;;;11.78;53.01;101731.53;4938223;28;97822;-67
2022/10/19 04:28:45;;;;;;;;;;;;;;;11.76;52.92;101726.41;4948406;28;98186;-68
2022/10/19 04:31:12;;;;;;;;;;;;;;;11.74;53.04;101725.81;4951702;28;100236;-68
2022/10/19 04:33:38;;;;;;;;;;;;;;;11.72;52.87;101724.44;4942770;28;98228;-69
2022/10/19 04:36:06;;;;;;;;;;;;;;;11.68;52.93;101723.28;4949042;28;98237;-68
2022/10/19 04:38:32;;;;;;;;;;;;;;;11.66;53.00;101720.00;4939419;28;98206;-68
2022/10/19 04:41:04;;;;;;;;;;;;;;;11.66;52.91;101722.69;4949806;28;98596;-68
2022/10/19 04:43:30;;;;;;;;;;;;;;;11.63;53.09;101721.31;4944657;28;98197;-68
2022/10/19 04:45:56;;;;;;;;;;;;;;;11.61;53.12;101725.31;4949416;28;108439;-68
2022/10/19 04:48:22;;;;;;;;;;;;;;;11.60;53.09;101729.09;4943127;28;116623;-68
2022/10/19 04:50:48;;;;;;;;;;;;;;;11.59;52.98;101724.72;4953865;28;100764;-68
2022/10/19 04:53:14;;;;;;;;;;;;;;;11.59;52.94;101730.13;4955620;28;127841;-68
2022/10/19 04:55:41;;;;;;;;;;;;;;;11.58;52.99;101726.59;4954007;28;97931;-68
2022/10/19 04:58:07;;;;;;;;;;;;;;;11.58;52.77;101731.19;4950290;28;97973;-68
2022/10/19 05:00:33;;;;;;;;;;;;;;;11.57;52.91;101738.47;4941377;28;98414;-68
2022/10/19 05:03:00;;;;;;;;;;;;;;;11.54;52.93;101737.06;4940664;28;99386;-68
2022/10/19 05:05:26;;;;;;;;;;;;;;;11.54;53.07;101731.69;4947450;28;98028;-68
2022/10/19 05:07:53;;;;;;;;;;;;;;;11.55;53.04;101736.03;4941973;28;98353;-69
2022/10/19 05:10:19;;;;;;;;;;;;;;;11.55;52.96;101738.75;4939208;28;98160;-68
2022/10/19 05:12:45;;;;;;;;;;;;;;;11.57;53.14;101734.97;4947754;28;98425;-68
2022/10/19 05:15:12;;;;;;;;;;;;;;;11.57;52.87;101734.97;4945586;28;98235;-68
2022/10/19 05:17:38;;;;;;;;;;;;;;;11.59;52.94;101740.94;4943257;28;98633;-65
2022/10/19 05:20:05;;;;;;;;;;;;;;;11.60;52.93;101742.59;4941562;28;130605;-64
2022/10/19 05:22:31;;;;;;;;;;;;;;;11.60;52.70;101735.31;4945187;27;99740;-64
2022/10/19 05:24:57;;;;;;;;;;;;;;;11.60;52.68;101726.38;4949387;28;98085;-64
2022/10/19 05:27:24;;;;;;;;;;;;;;;11.59;52.94;101717.44;4959542;28;98110;-64
2022/10/19 05:29:50;;;;;;;;;;;;;;;11.60;52.87;101723.69;4953686;28;100421;-64
2022/10/19 05:32:16;;;;;;;;;;;;;;;11.59;52.90;101725.53;4962290;28;98755;-64
2022/10/19 05:34:42;;;;;;;;;;;;;;;11.58;52.91;101723.09;4957719;28;104210;-64
2022/10/19 05:37:08;;;;;;;;;;;;;;;11.57;52.74;101727.69;4941357;28;97997;-64
2022/10/19 05:39:34;;;;;;;;;;;;;;;11.55;52.69;101733.34;4945955;28;127793;-68
2022/10/19 05:42:00;;;;;;;;;;;;;;;11.56;52.97;101736.84;4947338;28;98803;-64
2022/10/19 05:44:26;;;;;;;;;;;;;;;11.58;52.69;101742.00;4946538;28;97792;-64
2022/10/19 05:46:52;;;;;;;;;;;;;;;11.59;52.88;101740.94;4936136;28;117239;-65
2022/10/19 05:49:19;;;;;;;;;;;;;;;11.61;52.84;101755.03;4955007;28;110133;-64
2022/10/19 05:51:45;;;;;;;;;;;;;;;11.62;52.92;101745.84;4941378;28;98154;-64
2022/10/19 05:54:12;;;;;;;;;;;;;;;11.65;52.98;101753.47;4931093;28;128641;-64
2022/10/19 05:56:39;;;;;;;;;;;;;;;11.65;52.97;101762.41;4943104;28;98077;-68
2022/10/19 05:59:06;;;;;;;;;;;;;;;11.68;52.86;101758.41;4949504;28;97935;-68
2022/10/19 06:01:33;;;;;;;;;;;;;;;11.69;52.85;101760.03;4949600;28;98560;-68
2022/10/19 06:03:59;;;;;;;;;;;;;;;11.68;52.79;101759.22;4940688;28;98126;-68
2022/10/19 06:06:26;;;;;;;;;;;;;;;11.71;52.77;101763.28;4948254;28;98050;-68
2022/10/19 06:08:55;;;;;;;;;;;;;;;11.74;52.81;101773.63;4934110;28;98748;-68
2022/10/19 06:11:29;;;;;;;;;;;;;;;11.75;52.88;101772.53;4938396;28;98154;-69
2022/10/19 06:13:57;;;;;;;;;;;;;;;11.78;52.75;101774.75;4945608;28;105487;-68
2022/10/19 06:16:23;;;;;;;;;;;;;;;11.79;52.75;101779.13;4943681;28;97877;-68
2022/10/19 06:18:49;;;;;;;;;;;;;;;11.82;52.69;101777.78;4949345;28;98078;-68
2022/10/19 06:21:17;;;;;;;;;;;;;;;11.83;52.50;101766.81;4946588;28;111062;-69
2022/10/19 06:23:43;;;;;;;;;;;;;;;11.86;52.73;101776.28;4958297;28;98270;-69
2022/10/19 06:26:11;;;;;;;;;;;;;;;11.87;52.63;101777.91;4943072;28;97969;-68
2022/10/19 06:28:38;;;;;;;;;;;;;;;11.87;52.58;101781.47;4943264;28;99627;-68
2022/10/19 06:31:05;;;;;;;;;;;;;;;11.89;52.61;101786.59;4957141;28;98406;-68
2022/10/19 06:33:31;;;;;;;;;;;;;;;11.89;52.54;101792.81;4939092;28;98125;-69
2022/10/19 06:36:18;;;;;;;;;;;;;;;11.91;52.53;101787.19;4948312;28;98088;-68
2022/10/19 06:38:44;;;;;;;;;;;;;;;11.96;52.57;101787.28;4930207;28;98054;-68
2022/10/19 06:41:11;;;;;;;;;;;;;;;12.02;52.51;101789.81;4960848;28;97900;-69
2022/10/19 06:43:37;;;;;;;;;;;;;;;12.07;52.71;101793.69;4948610;28;97938;-69
2022/10/19 06:46:05;;;;;;;;;;;;;;;12.13;52.50;101795.38;4944154;28;98124;-68
2022/10/19 06:48:31;;;;;;;;;;;;;;;12.17;52.16;101797.34;4945160;28;100180;-68
2022/10/19 06:50:59;;;;;;;;;;;;;;;12.24;52.40;101799.88;4959494;28;98209;-68
2022/10/19 06:53:25;;;;;;;;;;;;;;;12.33;52.22;101803.81;4946683;28;102487;-68
2022/10/19 06:55:51;;;;;;;;;;;;;;;12.41;52.10;101800.69;4959123;28;98140;-68
2022/10/19 06:58:18;;;;;;;;;;;;;;;12.48;52.03;101804.03;4943783;28;98418;-68
2022/10/19 07:00:44;;;;;;;;;;;;;;;12.60;51.90;101800.44;4948763;28;98571;-68
2022/10/19 07:03:10;;;;;;;;;;;;;;;12.68;51.88;101811.63;4943974;28;99372;-68
2022/10/19 07:05:37;;;;;;;;;;;;;;;12.73;51.97;101803.63;4944735;28;98268;-68
2022/10/19 07:08:04;;;;;;;;;;;;;;;12.78;52.00;101809.09;4952942;28;98867;-68
2022/10/19 07:10:30;;;;;;;;;;;;;;;12.86;51.71;101805.13;4947578;28;98069;-69
2022/10/19 07:12:56;;;;;;;;;;;;;;;12.94;51.72;101814.72;4958338;28;98202;-65
2022/10/19 07:15:22;;;;;;;;;;;;;;;13.02;51.63;101809.69;4942627;28;115851;-65
2022/10/19 07:17:48;;;;;;;;;;;;;;;13.14;51.53;101814.16;4953357;28;101693;-64
2022/10/19 07:20:14;;;;;;;;;;;;;;;13.23;51.44;101807.25;4943584;28;127970;-65
2022/10/19 07:22:40;;;;;;;;;;;;;;;13.29;51.51;101811.66;4936031;28;99275;-65
2022/10/19 07:25:08;;;;;;;;;;;;;;;13.38;51.67;101818.25;4941824;28;115025;-65
2022/10/19 07:27:35;;;;;;;;;;;;;;;13.45;51.32;101818.88;4929884;28;98047;-65
2022/10/19 07:30:03;;;;;;;;;;;;;;;13.58;51.24;101822.28;4943856;28;99941;-65
2022/10/19 07:32:29;;;;;;;;;;;;;;;13.72;51.39;101826.22;4942453;28;97980;-69
2022/10/19 07:34:55;;;;;;;;;;;;;;;13.78;51.33;101822.47;4945386;28;99112;-65
2022/10/19 07:37:21;;;;;;;;;;;;;;;13.73;51.42;101817.81;4935421;28;100294;-65
2022/10/19 07:39:47;;;;;;;;;;;;;;;13.74;51.43;101826.78;4944145;28;98141;-65
2022/10/19 07:42:13;;;;;;;;;;;;;;;13.79;51.54;101826.00;4938004;28;98060;-65
2022/10/19 07:44:39;;;;;;;;;;;;;;;13.80;51.27;101828.47;4937247;28;97964;-69
2022/10/19 07:47:05;;;;;;;;;;;;;;;13.83;51.57;101827.13;4941218;28;99952;-69
2022/10/19 07:49:32;;;;;;;;;;;;;;;13.84;51.52;101831.50;4940972;28;98136;-69
2022/10/19 07:51:58;;;;;;;;;;;;;;;13.84;51.62;101826.06;4945323;28;98791;-69
2022/10/19 07:54:26;;;;;;;;;;;;;;;13.86;51.65;101821.19;4950812;28;98006;-65
2022/10/19 07:56:52;;;;;;;;;;;;;;;13.97;51.18;101831.88;4941956;28;97690;-65
2022/10/19 07:59:20;;;;;;;;;;;;;;;14.07;51.38;101833.03;4945267;28;98598;-65
2022/10/19 08:01:47;;;;;;;;;;;;;;;14.12;51.25;101835.81;4942115;28;98126;-65
2022/10/19 08:04:15;;;;;;;;;;;;;;;14.24;51.20;101834.56;4943580;28;98004;-65
2022/10/19 08:06:41;;;;;;;;;;;;;;;14.41;50.93;101839.84;4940827;28;98740;-65
2022/10/19 08:09:08;;;;;;;;;;;;;;;14.58;50.77;101836.19;4951144;28;98463;-68
2022/10/19 08:11:35;;;;;;;;;;;;;;;14.65;50.47;101834.06;4931539;28;97959;-69
2022/10/19 08:14:02;;;;;;;;;;;;;;;14.76;50.36;101840.38;4946422;28;98047;-69
2022/10/19 08:16:38;;;;;;;;;;;;;;;14.89;50.28;101837.19;4962351;28;97752;-68
2022/10/19 08:19:06;;;;;;;;;;;;;;;15.04;50.32;101833.75;4949815;28;98239;-69
2022/10/19 08:21:32;;;;;;;;;;;;;;;15.22;50.31;101836.00;4946749;28;98225;-69
2022/10/19 08:23:59;;;;;;;;;;;;;;;15.23;50.56;101837.63;4929196;28;98382;-69
2022/10/19 08:26:28;;;;;;;;;;;;;;;15.14;50.72;101842.75;4939706;28;98824;-69
2022/10/19 08:29:05;;;;;;;;;;;;;;;15.05;50.88;101841.66;4941967;28;100242;-69
2022/10/19 08:31:31;;;;;;;;;;;;;;;15.00;50.97;101840.78;4948879;28;98336;-69
2022/10/19 08:33:58;;;;;;;;;;;;;;;14.98;50.73;101835.63;4936497;28;98018;-65
2022/10/19 08:36:24;;;;;;;;;;;;;;;15.00;51.10;101840.78;4939121;28;127651;-65
2022/10/19 08:38:51;;;;;;;;;;;;;;;14.98;51.12;101841.06;4942728;28;100052;-65
2022/10/19 08:41:29;;;;;;;;;;;;;;;14.95;51.33;101841.56;4952277;28;104491;-65
2022/10/19 08:43:57;;;;;;;;;;;;;;;14.93;51.15;101841.84;4974986;28;97977;-65
2022/10/19 08:46:36;;;;;;;;;;;;;;;14.91;51.21;101844.00;4962621;28;98365;-65
2022/10/19 08:49:02;;;;;;;;;;;;;;;14.90;51.01;101847.00;4959433;28;98196;-65
2022/10/19 08:51:31;;;;;;;;;;;;;;;14.88;50.88;101843.72;4936281;28;98048;-65
2022/10/19 08:53:58;;;;;;;;;;;;;;;14.96;50.96;101838.59;4966001;28;98018;-65
2022/10/19 08:56:31;;;;;;;;;;;;;;;15.05;50.67;101838.94;4942922;28;110330;-68
2022/10/19 08:59:17;;;;;;;;;;;;;;;15.10;50.80;101849.00;4969127;28;98731;-69
2022/10/19 09:01:55;;;;;;;;;;;;;;;15.15;50.85;101847.09;4969457;28;97984;-68
2022/10/19 09:04:41;;;;;;;;;;;;;;;15.30;50.58;101842.84;4939324;28;97988;-65
2022/10/19 09:07:30;;;;;;;;;;;;;;;15.53;50.20;101838.84;4943275;28;99913;-65
2022/10/19 09:10:02;;;;;;;;;;;;;;;15.77;49.84;101837.28;4968068;28;98018;-65
2022/10/19 09:12:53;;;;;;;;;;;;;;;15.94;49.90;101835.13;4960716;28;98886;-65
2022/10/19 09:15:35;;;;;;;;;;;;;;;16.18;49.64;101838.13;4964274;28;97953;-65
2022/10/19 09:18:03;;;;;;;;;;;;;;;16.50;49.27;101830.78;4955602;28;98370;-68
2022/10/19 09:20:33;;;;;;;;;;;;;;;16.62;49.39;101834.03;4947197;28;98054;-68
2022/10/19 09:23:31;;;;;;;;;;;;;;;16.76;49.23;101837.03;4941201;28;98101;-68
2022/10/19 09:25:57;;;;;;;;;;;;;;;16.83;49.35;101841.09;4955581;28;97966;-68
2022/10/19 09:28:47;;;;;;;;;;;;;;;16.93;49.26;101834.78;4946265;28;98080;-69
2022/10/19 09:31:24;;;;;;;;;;;;;;;17.31;48.70;101841.47;4956510;28;97917;-69
2022/10/19 09:33:54;;;;;;;;;;;;;;;19.64;45.80;101838.84;4944764;28;98154;-69
2022/10/19 09:36:20;;;;;;;;;;;;;;;18.98;47.28;101834.19;4942041;28;98260;-69
2022/10/19 09:38:47;;;;;;;;;;;;;;;18.87;47.93;101842.53;4940149;28;98402;-69
2022/10/19 09:41:22;;;;;;;;;;;;;;;18.84;48.20;101853.22;4942845;28;98375;-69
2022/10/19 09:43:53;;;;;;;;;;;;;;;18.76;48.30;101860.13;4946747;28;98053;-69
2022/10/19 09:46:41;;;;;;;;;;;;;;;18.61;48.34;101854.78;4952306;28;98477;-69
2022/10/19 09:49:07;;;;;;;;;;;;;;;18.57;48.44;101851.81;4959683;28;97900;-68
2022/10/19 09:51:44;;;;;;;;;;;;;;;18.36;48.95;101853.91;4948208;28;97835;-69
2022/10/19 09:54:37;;;;;;;;;;;;;;;18.25;49.08;101857.00;4941045;28;98084;-69
2022/10/19 09:57:03;;;;;;;;;;;;;;;18.55;48.46;101855.91;4937223;28;98289;-69
2022/10/19 09:59:34;;;;;;;;;;;;;;;18.30;48.77;101860.50;4958645;28;99673;-65
2022/10/19 10:02:14;;;;;;;;;;;;;;;18.09;49.19;101867.22;4945489;28;109913;-65
2022/10/19 10:04:41;;;;;;;;;;;;;;;17.67;49.64;101871.28;4937229;28;99458;-65
2022/10/19 10:07:14;;;;;;;;;;;;;;;17.42;49.91;101872.22;4941022;28;97880;-65
2022/10/19 10:09:40;;;;;;;;;;;;;;;17.29;50.04;101872.81;4947107;28;98340;-65
2022/10/19 10:12:12;;;;;;;;;;;;;;;17.20;50.02;101869.03;4935894;28;123971;-65
2022/10/19 10:14:38;;;;;;;;;;;;;;;17.08;50.04;101874.81;4963830;28;97735;-65
2022/10/19 10:17:17;;;;;;;;;;;;;;;16.95;50.27;101867.22;4942883;28;98886;-64
2022/10/19 10:19:57;;;;;;;;;;;;;;;16.77;50.46;101869.41;4970094;28;98481;-65
2022/10/19 10:22:29;;;;;;;;;;;;;;;16.62;50.48;101872.13;4970181;28;98791;-65
2022/10/19 10:24:56;;;;;;;;;;;;;;;16.41;50.50;101872.16;4945453;28;98349;-65
2022/10/19 10:27:36;;;;;;;;;;;;;;;16.32;50.71;101871.06;4942901;28;98421;-65
2022/10/19 10:30:24;;;;;;;;;;;;;;;16.29;50.58;101866.16;4957637;28;98113;-65
2022/10/19 10:32:54;;;;;;;;;;;;;;;16.14;50.67;101872.41;4938076;28;98370;-68
2022/10/19 10:35:28;;;;;;;;;;;;;;;16.05;50.82;101874.03;4936292;28;98851;-68
2022/10/19 10:38:02;;;;;;;;;;;;;;;15.91;51.06;101872.91;4936088;28;97919;-68
2022/10/19 10:40:29;;;;;;;;;;;;;;;15.81;51.10;101865.56;4949348;28;112754;-65
2022/10/19 10:43:16;;;;;;;;;;;;;;;15.77;50.80;101863.66;4946947;28;98209;-68
2022/10/19 10:45:48;;;;;;;;;;;;;;;15.71;50.79;101862.81;4937618;28;97883;-65
2022/10/19 10:48:17;;;;;;;;;;;;;;;15.69;50.91;101870.44;4939860;28;98152;-68
2022/10/19 10:50:43;;;;;;;;;;;;;;;15.69;50.84;101870.44;4950497;28;98074;-68
2022/10/19 10:53:30;;;;;;;;;;;;;;;15.71;50.59;101865.53;4944958;28;98292;-68
2022/10/19 10:55:56;;;;;;;;;;;;;;;15.75;50.74;101858.47;4956067;28;106755;-65
2022/10/19 10:58:46;;;;;;;;;;;;;;;15.80;50.39;101863.09;4949324;28;110046;-68
2022/10/19 11:01:22;;;;;;;;;;;;;;;15.84;50.30;101864.22;4951747;28;100469;-65
2022/10/19 11:03:55;;;;;;;;;;;;;;;15.89;50.53;101859.59;4938796;28;98272;-65
2022/10/19 11:06:21;;;;;;;;;;;;;;;15.98;50.35;101856.34;4942662;28;98416;-68
2022/10/19 11:09:06;;;;;;;;;;;;;;;16.08;50.09;101870.78;4946459;28;98152;-65
2022/10/19 11:11:35;;;;;;;;;;;;;;;16.18;50.15;101859.91;4943341;28;98249;-65
2022/10/19 11:14:34;;;;;;;;;;;;;;;16.40;49.76;101851.47;4936624;28;99962;-68
2022/10/19 11:17:04;;;;;;;;;;;;;;;16.73;49.32;101856.59;4942607;28;116514;-69
2022/10/19 11:19:40;;;;;;;;;;;;;;;16.99;49.03;101843.78;4939165;28;98103;-69
2022/10/19 11:22:31;;;;;;;;;;;;;;;17.22;48.76;101848.59;4942165;28;98378;-68
2022/10/19 11:25:16;;;;;;;;;;;;;;;17.46;48.70;101853.41;4943364;28;98156;-65
2022/10/19 11:28:11;;;;;;;;;;;;;;;17.60;48.66;101854.41;4958421;28;99151;-69
2022/10/19 11:30:58;;;;;;;;;;;;;;;17.56;48.88;101851.44;4895385;28;98397;-65
2022/10/19 11:33:47;;;;;;;;;;;;;;;17.49;49.18;101861.84;4943671;28;97977;-65
2022/10/19 11:36:31;;;;;;;;;;;;;;;17.47;49.15;101857.75;4964393;28;98378;-68
2022/10/19 11:39:15;;;;;;;;;;;;;;;17.48;49.16;101851.22;4956219;28;98182;-65
2022/10/19 11:41:57;;;;;;;;;;;;;;;17.53;49.08;101843.03;4970892;28;97949;-65
2022/10/19 11:44:56;;;;;;;;;;;;;;;17.64;48.87;101848.13;4944620;28;97969;-65
2022/10/19 11:47:50;;;;;;;;;;;;;;;17.75;48.77;101832.53;4967496;28;97892;-65
2022/10/19 11:50:35;;;;;;;;;;;;;;;17.87;48.71;101841.19;4955166;28;98045;-68
2022/10/19 11:53:22;;;;;;;;;;;;;;;18.13;48.29;101841.81;4951725;28;98174;-65
2022/10/19 11:56:06;;;;;;;;;;;;;;;18.26;48.30;101842.25;4929361;28;98026;-69
2022/10/19 11:58:44;;;;;;;;;;;;;;;18.21;48.58;101840.41;4942322;28;99274;-65
2022/10/19 12:01:36;;;;;;;;;;;;;;;18.21;48.49;101839.59;4943546;28;111530;-65
2022/10/19 12:04:20;;;;;;;;;;;;;;;18.02;49.10;101834.00;4964305;28;98290;-65
2022/10/19 12:07:04;;;;;;;;;;;;;;;17.71;49.44;101828.72;4950053;28;98211;-65
2022/10/19 12:09:33;;;;;;;;;;;;;;;17.40;49.85;101831.59;4941059;28;125420;-69
2022/10/19 12:12:21;;;;;;;;;;;;;;;17.21;50.12;101825.16;4945365;28;97779;-69
2022/10/19 12:14:53;;;;;;;;;;;;;;;17.16;49.98;101823.28;4936470;28;98238;-65
2022/10/19 12:17:31;;;;;;;;;;;;;;;17.24;49.75;101818.34;4938862;28;98144;-69
2022/10/19 12:20:00;;;;;;;;;;;;;;;17.39;49.42;101813.63;4942097;28;99754;-69
2022/10/19 12:22:27;;;;;;;;;;;;;;;17.52;49.33;101808.66;4935446;28;97997;-69
2022/10/19 12:24:54;;;;;;;;;;;;;;;17.64;49.06;101811.84;4948806;28;98181;-65
2022/10/19 12:27:50;;;;;;;;;;;;;;;17.71;49.02;101814.28;4956671;28;98111;-65
2022/10/19 12:30:19;;;;;;;;;;;;;;;17.73;49.01;101806.63;4926338;28;97913;-69
2022/10/19 12:32:59;;;;;;;;;;;;;;;17.72;49.28;101810.44;4942881;28;97999;-65
2022/10/19 12:35:43;;;;;;;;;;;;;;;17.72;49.21;101810.44;4949700;28;98019;-69
2022/10/19 12:38:34;;;;;;;;;;;;;;;17.74;48.93;101803.63;4966570;27;97950;-69
2022/10/19 12:41:04;;;;;;;;;;;;;;;17.78;49.06;101801.19;4952275;28;98047;-69
2022/10/19 12:43:54;;;;;;;;;;;;;;;17.83;49.03;101801.94;4941808;28;99216;-66
2022/10/19 12:46:45;;;;;;;;;;;;;;;17.88;49.05;101795.63;4953006;28;97982;-66
2022/10/19 12:49:28;;;;;;;;;;;;;;;17.84;49.12;101795.41;4956483;28;98411;-69
2022/10/19 12:51:55;;;;;;;;;;;;;;;17.75;49.08;101802.53;4953712;28;97925;-65
2022/10/19 12:54:25;;;;;;;;;;;;;;;17.73;49.14;101796.53;4934570;28;111251;-70
2022/10/19 12:56:53;;;;;;;;;;;;;;;17.69;49.01;101798.22;4944465;28;98049;-69